Woodstock, Canada
Current Conditions -  °F | °C
As of 9:53 AM on Thursday 23 Oct 2014 (Local Time) from KHUL Reporting Station
Light Rain Light Rain  
Wind Chill: 40°   Ceiling: 1100
Heat Index: 46°   Visibility: 9mi
Dew Point: 43°   Wind: 15mph
Humidity: 89%   Direction: 40°NE
Pressure: 30.11"   Gusts: 24mph
Location:  46.15°N, 67.58°W
Report Text: KHUL 231253Z AUTO 04013G21KT 9SM -RA OVC011 08/06 A3011 RMK AO2 RAB35 SLP199 T00780061 PNO
Loading
Personal Weather Stations






























Interactive Weather Map
Tropical Storm Tracking
New forecast layout! Learn more

10-Day Weather Forecast

Advertisements
Track Severe Weather on mobile